首页
METAR-TAF:

METAR-TAF

机场 :

伦敦绍森德机场

伦敦Southend, 英格兰

纬度: 51-34N, 经度: 000-42E, 海拔: 15米

当前天气观测

该预报发布于22分钟前的05:50 UTC
风速8节,风向西南
温度 14°C
湿度 94%
气压 1010 hPa
能见度10公里或以上
多云层高于1600英尺

METAR: EGMC 230550Z 23008KT 9999 BKN016 14/13 Q1010

时间: 07:12 (06:12 UTC)

预报

该预报发布于1小时和9分钟前的05:03 UTC
预报有效从23日的 06点(UTC)到 23日的 15点(UTC)
风速10节,风向西转西南
能见度10公里或以上
散云层高于3000英尺
短暂存在
从 23日的 06点(UTC)到 23日的 08点(UTC)
多云层高于1000英尺
几率 30% :
短暂存在
从 23日的 12点(UTC)到 23日的 15点(UTC)
能見度: 7000
阵雨

TAF: EGMC 230503Z 2306/2315 24010KT 9999 SCT030 TEMPO 2306/2308 BKN010 PROB30 TEMPO 2312/2315 7000 SHRA

超过4000个机场的气象观测和天气预报(METAR&TAF报告)。

可查询的气象台以黄色和红色小点在地图上表示。

将鼠标移到小点上方,可查看气象台名称。

然后点击查看天气观测和预报。

如需切换地图:点击带黑十字的绿色按钮放大地图;点击带横线的绿色按钮缩小地图;或者点击绿色箭头查看邻近地区的地图。


METAR-TAF: